createdAt,value
2022-09-20T00:00:52.581Z,87.41
2022-09-20T00:03:28.185Z,87.43
2022-09-20T00:06:13.938Z,87.46
2022-09-20T00:08:57.330Z,87.54
2022-09-20T00:11:40.356Z,87.51
2022-09-20T00:14:23.280Z,87.75
2022-09-20T00:17:06.569Z,87.67
2022-09-20T00:19:35.890Z,87.75
2022-09-20T00:22:18.720Z,87.58
2022-09-20T00:25:01.091Z,87.64
2022-09-20T00:27:46.029Z,87.88
2022-09-20T00:30:15.310Z,87.80
2022-09-20T00:32:58.207Z,87.77
2022-09-20T00:35:28.343Z,87.78
2022-09-20T00:37:58.090Z,87.79
2022-09-20T00:40:27.786Z,87.81
2022-09-20T00:42:56.945Z,87.69
2022-09-20T00:45:39.726Z,87.79
2022-09-20T00:48:30.981Z,87.59
2022-09-20T00:51:18.271Z,87.61
2022-09-20T00:54:04.710Z,87.66
2022-09-20T00:56:47.547Z,87.62
2022-09-20T00:59:35.769Z,87.58
2022-09-20T01:02:09.221Z,87.64
2022-09-20T01:04:41.629Z,87.69
2022-09-20T01:07:25.047Z,87.56
2022-09-20T01:10:08.095Z,87.62
2022-09-20T01:12:54.356Z,87.74
2022-09-20T01:15:39.973Z,87.88
2022-09-20T01:18:10.508Z,87.86
2022-09-20T01:20:53.185Z,87.80
2022-09-20T01:23:25.706Z,87.78
2022-09-20T01:26:39.751Z,87.80
2022-09-20T01:29:18.481Z,87.99
2022-09-20T01:31:53.845Z,87.91
2022-09-20T01:34:35.407Z,87.91
2022-09-20T01:37:28.909Z,87.77
2022-09-20T01:40:04.570Z,87.74
2022-09-20T01:42:59.063Z,87.87
2022-09-20T01:45:31.215Z,88.00
2022-09-20T01:48:36.323Z,88.06
2022-09-20T01:51:38.101Z,88.06
2022-09-20T01:55:06.205Z,88.08
2022-09-20T01:58:13.524Z,88.17
2022-09-20T02:01:04.424Z,88.18
2022-09-20T02:03:36.742Z,88.08
2022-09-20T02:06:57.458Z,88.02
2022-09-20T02:09:45.391Z,88.15
2022-09-20T02:12:23.449Z,88.01
2022-09-20T02:15:29.965Z,88.15
2022-09-20T02:18:31.323Z,88.05
2022-09-20T02:21:19.576Z,88.10
2022-09-20T02:24:26.531Z,88.21
2022-09-20T02:27:23.169Z,88.28
2022-09-20T02:30:23.980Z,88.11
2022-09-20T02:33:45.062Z,88.09
2022-09-20T02:36:59.593Z,88.23
2022-09-20T02:39:43.517Z,88.07
2022-09-20T02:42:47.578Z,87.94
2022-09-20T02:46:02.807Z,87.92
2022-09-20T02:48:46.021Z,87.82
2022-09-20T02:51:24.983Z,87.88
2022-09-20T02:54:05.452Z,87.80
2022-09-20T02:57:17.541Z,87.93
2022-09-20T03:00:10.043Z,87.77
2022-09-20T03:03:14.652Z,87.83
2022-09-20T03:06:04.708Z,87.78
2022-09-20T03:09:17.946Z,87.94
2022-09-20T03:12:49.821Z,87.86
2022-09-20T03:15:37.354Z,87.78
2022-09-20T03:19:02.262Z,87.76
2022-09-20T03:21:53.026Z,87.86
2022-09-20T03:24:41.728Z,87.66
2022-09-20T03:27:48.590Z,87.80
2022-09-20T03:30:53.216Z,87.74
2022-09-20T03:33:59.692Z,87.79
2022-09-20T03:36:50.923Z,87.75
2022-09-20T03:39:44.892Z,88.00
2022-09-20T03:42:30.085Z,88.07
2022-09-20T03:45:26.885Z,87.98
2022-09-20T03:47:56.335Z,87.97
2022-09-20T03:50:28.596Z,87.85
2022-09-20T03:53:16.327Z,88.10
2022-09-20T03:56:07.748Z,88.04
2022-09-20T03:59:22.093Z,88.12
2022-09-20T04:02:07.909Z,88.09
2022-09-20T04:04:56.343Z,88.23
2022-09-20T04:07:25.043Z,88.25
2022-09-20T04:10:32.063Z,88.22
2022-09-20T04:14:01.642Z,88.20
2022-09-20T04:16:31.049Z,88.34
2022-09-20T04:19:32.899Z,88.37
2022-09-20T04:22:16.456Z,88.40
2022-09-20T04:25:03.000Z,88.39
2022-09-20T04:27:44.510Z,88.19
2022-09-20T04:30:21.690Z,88.30
2022-09-20T04:33:15.512Z,88.21
2022-09-20T04:36:35.995Z,88.26
2022-09-20T04:39:14.693Z,88.23
2022-09-20T04:42:11.023Z,88.22
2022-09-20T04:45:33.336Z,88.39
2022-09-20T04:48:54.916Z,88.43
2022-09-20T04:51:41.826Z,88.44
2022-09-20T04:54:30.068Z,88.34
2022-09-20T04:57:33.188Z,88.34
2022-09-20T05:00:14.569Z,88.41
2022-09-20T05:03:04.063Z,88.41
2022-09-20T05:05:41.305Z,88.51
2022-09-20T05:09:05.695Z,88.51
2022-09-20T05:12:12.515Z,88.52
2022-09-20T05:15:01.178Z,88.44
2022-09-20T05:17:48.597Z,88.25
2022-09-20T05:20:47.426Z,88.37
2022-09-20T05:23:32.680Z,88.38
2022-09-20T05:26:10.308Z,88.32
2022-09-20T05:28:50.470Z,88.38
2022-09-20T05:31:44.612Z,88.33
2022-09-20T05:34:18.755Z,88.34
2022-09-20T05:37:08.305Z,88.32
2022-09-20T05:40:07.716Z,88.39
2022-09-20T05:45:51.104Z,88.27
2022-09-20T05:48:21.062Z,88.28
2022-09-20T05:54:55.376Z,88.57
2022-09-20T05:58:06.654Z,88.59
2022-09-20T06:00:48.866Z,88.72
2022-09-20T06:03:37.658Z,88.71
2022-09-20T06:06:16.170Z,88.82
2022-09-20T06:09:13.088Z,88.63
2022-09-20T06:12:04.341Z,88.82
2022-09-20T06:15:07.127Z,88.81
2022-09-20T06:17:50.328Z,88.87
2022-09-20T06:20:33.810Z,88.55
2022-09-20T06:23:06.302Z,88.58
2022-09-20T06:25:45.982Z,88.62
2022-09-20T06:28:19.347Z,88.62
2022-09-20T06:30:53.911Z,88.61
2022-09-20T06:34:03.684Z,88.92
2022-09-20T06:36:56.803Z,88.65
2022-09-20T06:40:00.174Z,88.65
2022-09-20T06:42:30.302Z,88.53
2022-09-20T06:44:59.636Z,88.61
2022-09-20T06:47:29.665Z,88.35
2022-09-20T06:50:00.396Z,88.46
2022-09-20T06:52:29.948Z,88.56
2022-09-20T06:54:59.105Z,88.25
2022-09-20T06:57:36.346Z,88.14
2022-09-20T07:00:11.687Z,88.46
2022-09-20T07:02:40.491Z,88.15
2022-09-20T07:05:22.723Z,88.35
2022-09-20T07:07:58.042Z,88.35
2022-09-20T07:10:28.383Z,88.50
2022-09-20T07:13:02.307Z,88.16
2022-09-20T07:15:33.632Z,88.57
2022-09-20T07:18:16.313Z,88.17
2022-09-20T07:21:01.402Z,87.88
2022-09-20T07:23:31.742Z,87.95
2022-09-20T07:26:01.465Z,87.71
2022-09-20T07:28:33.007Z,87.69
2022-09-20T07:31:02.126Z,87.76
2022-09-20T07:33:32.086Z,87.97
2022-09-20T07:36:02.086Z,88.03
2022-09-20T07:38:31.274Z,87.47
2022-09-20T07:41:02.664Z,87.58
2022-09-20T07:43:32.691Z,88.06
2022-09-20T07:46:02.139Z,88.14
2022-09-20T07:48:34.571Z,87.98
2022-09-20T07:51:17.684Z,88.07
2022-09-20T07:53:46.699Z,87.74
2022-09-20T07:56:29.407Z,87.77
2022-09-20T07:58:58.754Z,87.73
2022-09-20T08:01:42.483Z,87.54
2022-09-20T08:04:11.981Z,87.87
2022-09-20T08:06:44.459Z,87.96
2022-09-20T08:09:14.551Z,87.64
2022-09-20T08:11:58.387Z,87.77
2022-09-20T08:14:27.390Z,87.25
2022-09-20T08:17:02.249Z,87.06
2022-09-20T08:19:31.296Z,86.93
2022-09-20T08:22:14.177Z,86.55
2022-09-20T08:24:44.859Z,86.75
2022-09-20T08:27:27.159Z,86.55
2022-09-20T08:30:10.647Z,87.03
2022-09-20T08:32:54.236Z,86.86
2022-09-20T08:35:38.530Z,86.56
2022-09-20T08:41:19.329Z,86.28
2022-09-20T08:43:56.425Z,86.10
2022-09-20T08:46:50.385Z,85.76
2022-09-20T08:49:30.313Z,85.28
2022-09-20T08:52:19.834Z,85.17
2022-09-20T08:55:07.442Z,84.80
2022-09-20T08:57:54.449Z,84.69
2022-09-20T09:00:32.768Z,84.58
2022-09-20T09:03:07.189Z,84.26
2022-09-20T09:05:55.511Z,83.81
2022-09-20T09:08:29.210Z,84.07
2022-09-20T09:11:09.068Z,84.07
2022-09-20T09:14:02.224Z,84.09
2022-09-20T09:16:35.780Z,83.25
2022-09-20T09:19:44.113Z,83.77
2022-09-20T09:22:37.794Z,84.21
2022-09-20T09:25:22.279Z,83.38
2022-09-20T09:27:59.631Z,83.14
2022-09-20T09:30:32.197Z,83.29
2022-09-20T09:33:20.397Z,83.17
2022-09-20T09:36:15.430Z,81.56
2022-09-20T09:38:46.425Z,81.91
2022-09-20T09:41:26.540Z,81.61
2022-09-20T09:44:21.385Z,82.26
2022-09-20T09:47:04.187Z,82.14
2022-09-20T09:50:09.819Z,81.52
2022-09-20T09:52:39.658Z,80.26
2022-09-20T09:55:24.112Z,80.02
2022-09-20T09:58:13.394Z,80.21
2022-09-20T10:00:59.896Z,80.41
2022-09-20T10:03:49.044Z,79.93
2022-09-20T10:06:18.822Z,79.96
2022-09-20T10:09:39.541Z,79.32
2022-09-20T10:12:19.890Z,79.47
2022-09-20T10:15:19.453Z,80.29
2022-09-20T10:17:58.158Z,78.34
2022-09-20T10:20:43.586Z,77.54
2022-09-20T10:24:02.128Z,77.92
2022-09-20T10:26:59.865Z,78.37
2022-09-20T10:29:53.394Z,78.23
2022-09-20T10:32:50.487Z,77.46
2022-09-20T10:36:14.496Z,78.11
2022-09-20T10:38:50.006Z,77.12
2022-09-20T10:42:16.269Z,78.06
2022-09-20T10:44:58.243Z,77.81
2022-09-20T10:47:34.707Z,77.94
2022-09-20T10:50:18.761Z,77.57
2022-09-20T10:53:26.481Z,78.05
2022-09-20T10:56:32.001Z,77.50
2022-09-20T10:59:19.300Z,77.03
2022-09-20T11:01:58.964Z,77.27
2022-09-20T11:04:46.625Z,77.20
2022-09-20T11:07:22.694Z,75.28
2022-09-20T11:09:56.567Z,74.48
2022-09-20T11:12:51.686Z,74.69
2022-09-20T11:15:41.940Z,75.77
2022-09-20T11:18:23.814Z,75.73
2022-09-20T11:21:20.960Z,76.13
2022-09-20T11:24:03.077Z,76.90
2022-09-20T11:26:38.237Z,77.12
2022-09-20T11:29:19.936Z,75.81
2022-09-20T11:31:54.914Z,75.45
2022-09-20T11:34:32.512Z,74.61
2022-09-20T11:37:03.546Z,75.25
2022-09-20T11:40:01.596Z,74.76
2022-09-20T11:42:37.226Z,73.95
2022-09-20T11:45:06.467Z,74.15
2022-09-20T11:47:55.273Z,74.92
2022-09-20T11:51:16.055Z,73.11
2022-09-20T11:54:07.284Z,72.22
2022-09-20T11:56:36.327Z,72.36
2022-09-20T11:59:28.786Z,71.87
2022-09-20T12:02:00.943Z,71.54
2022-09-20T12:04:35.185Z,71.93
2022-09-20T12:07:26.696Z,73.00
2022-09-20T12:10:05.727Z,72.02
2022-09-20T12:12:44.448Z,71.19
2022-09-20T12:15:25.245Z,69.23
2022-09-20T12:17:53.998Z,70.09
2022-09-20T12:23:58.102Z,68.79
2022-09-20T12:26:40.477Z,69.49
2022-09-20T12:29:29.773Z,70.71
2022-09-20T12:32:01.862Z,70.16
2022-09-20T12:34:36.994Z,69.37
2022-09-20T12:37:05.539Z,70.58
2022-09-20T12:39:39.193Z,71.00
2022-09-20T12:42:10.778Z,69.67
2022-09-20T12:45:18.371Z,68.93
2022-09-20T12:48:00.828Z,69.06
2022-09-20T12:50:48.320Z,67.68
2022-09-20T12:53:17.330Z,64.50
2022-09-20T12:55:55.251Z,65.31
2022-09-20T12:58:32.879Z,66.83
2022-09-20T13:01:04.997Z,68.38
2022-09-20T13:03:48.536Z,69.37
2022-09-20T13:06:20.187Z,70.16
2022-09-20T13:09:09.708Z,70.61
2022-09-20T13:11:57.280Z,70.78
2022-09-20T13:14:32.470Z,71.30
2022-09-20T13:17:14.948Z,71.45
2022-09-20T13:19:50.263Z,71.49
2022-09-20T13:22:43.657Z,71.40
2022-09-20T13:25:15.996Z,71.48
2022-09-20T13:28:04.345Z,71.53
2022-09-20T13:30:33.680Z,71.71
2022-09-20T13:33:25.765Z,71.77
2022-09-20T13:35:58.931Z,71.59
2022-09-20T13:38:32.210Z,71.78
2022-09-20T13:41:08.364Z,71.98
2022-09-20T13:43:52.347Z,71.75
2022-09-20T13:46:32.267Z,71.95
2022-09-20T13:49:23.894Z,71.98
2022-09-20T13:51:52.713Z,71.94
2022-09-20T13:54:33.056Z,71.91
2022-09-20T13:57:23.424Z,72.25
2022-09-20T13:59:53.164Z,71.90
2022-09-20T14:02:31.098Z,71.67
2022-09-20T14:05:02.229Z,71.97
2022-09-20T14:07:32.486Z,71.84
2022-09-20T14:10:01.540Z,72.29
2022-09-20T14:12:30.741Z,72.06
2022-09-20T14:15:16.328Z,72.03
2022-09-20T14:17:45.917Z,72.33
2022-09-20T14:20:17.492Z,72.10
2022-09-20T14:23:00.891Z,71.57
2022-09-20T14:25:29.878Z,71.69
2022-09-20T14:28:19.256Z,71.92
2022-09-20T14:30:48.855Z,71.86
2022-09-20T14:33:21.488Z,72.12
2022-09-20T14:35:52.260Z,72.39
2022-09-20T14:38:26.737Z,71.84
2022-09-20T14:41:04.449Z,71.70
2022-09-20T14:43:35.808Z,71.86
2022-09-20T14:46:18.619Z,71.88
2022-09-20T14:48:47.879Z,72.11
2022-09-20T14:51:30.386Z,71.99
2022-09-20T14:54:05.281Z,71.87
2022-09-20T14:56:37.447Z,71.88
2022-09-20T14:59:14.086Z,71.24
2022-09-20T15:01:47.228Z,71.31
2022-09-20T15:04:33.081Z,70.97
2022-09-20T15:07:08.568Z,71.50
2022-09-20T15:09:37.826Z,71.48
2022-09-20T15:12:14.384Z,71.33
2022-09-20T15:14:44.944Z,71.04
2022-09-20T15:17:19.794Z,71.49
2022-09-20T15:19:50.557Z,71.86
2022-09-20T15:22:19.371Z,71.43
2022-09-20T15:24:48.485Z,70.85
2022-09-20T15:27:31.461Z,70.87
2022-09-20T15:30:00.608Z,70.33
2022-09-20T15:32:29.705Z,70.38
2022-09-20T15:34:59.034Z,70.54
2022-09-20T15:37:27.980Z,71.16
2022-09-20T15:39:57.232Z,71.04
2022-09-20T15:42:26.125Z,71.19
2022-09-20T15:45:10.546Z,71.25
2022-09-20T15:47:40.370Z,71.40
2022-09-20T15:50:10.066Z,71.39
2022-09-20T15:52:42.168Z,71.56
2022-09-20T15:55:12.470Z,71.74
2022-09-20T15:57:48.313Z,71.42
2022-09-20T16:00:22.556Z,70.97
2022-09-20T16:02:51.630Z,70.94
2022-09-20T16:05:34.033Z,71.47
2022-09-20T16:08:03.236Z,71.32
2022-09-20T16:10:33.080Z,70.93
2022-09-20T16:13:01.672Z,71.31
2022-09-20T16:15:30.871Z,71.27
2022-09-20T16:18:18.352Z,71.20
2022-09-20T16:20:47.215Z,70.87
2022-09-20T16:23:29.860Z,71.07
2022-09-20T16:25:58.728Z,70.98
2022-09-20T16:28:28.531Z,71.15
2022-09-20T16:30:58.501Z,71.20
2022-09-20T16:33:27.523Z,71.49
2022-09-20T16:35:56.928Z,71.74
2022-09-20T16:38:26.602Z,71.82
2022-09-20T16:41:09.408Z,71.92
2022-09-20T16:43:38.371Z,72.07
2022-09-20T16:46:07.540Z,72.18
2022-09-20T16:48:54.924Z,72.11
2022-09-20T16:51:26.686Z,72.38
2022-09-20T16:54:14.754Z,72.37
2022-09-20T16:56:48.978Z,72.59
2022-09-20T16:59:22.048Z,72.61
2022-09-20T17:01:51.858Z,72.79
2022-09-20T17:04:21.715Z,72.88
2022-09-20T17:07:04.405Z,73.09
2022-09-20T17:09:36.170Z,73.08
2022-09-20T17:12:12.618Z,73.33
2022-09-20T17:14:49.584Z,73.24
2022-09-20T17:17:27.116Z,73.35
2022-09-20T17:20:07.145Z,73.59
2022-09-20T17:22:44.206Z,74.46
2022-09-20T17:25:19.655Z,74.40
2022-09-20T17:27:55.295Z,75.00
2022-09-20T17:30:33.451Z,74.81
2022-09-20T17:37:01.865Z,75.22
2022-09-20T17:39:30.784Z,75.54
2022-09-20T17:41:59.788Z,75.87
2022-09-20T17:44:42.385Z,76.35
2022-09-20T17:47:12.413Z,76.05
2022-09-20T17:49:41.093Z,76.37
2022-09-20T17:52:11.374Z,76.62
2022-09-20T17:54:40.487Z,76.71
2022-09-20T17:57:08.916Z,76.85
2022-09-20T17:59:37.478Z,77.23
2022-09-20T18:02:20.117Z,76.82
2022-09-20T18:05:17.186Z,77.08
2022-09-20T18:07:52.292Z,77.18
2022-09-20T18:10:21.574Z,77.14
2022-09-20T18:12:51.603Z,77.20
2022-09-20T18:15:20.903Z,77.05
2022-09-20T18:17:54.416Z,77.16
2022-09-20T18:20:23.550Z,77.16
2022-09-20T18:22:52.978Z,77.37
2022-09-20T18:25:24.556Z,77.52
2022-09-20T18:27:54.306Z,77.62
2022-09-20T18:30:23.120Z,77.96
2022-09-20T18:32:52.872Z,77.78
2022-09-20T18:35:21.530Z,77.94
2022-09-20T18:37:50.160Z,77.79
2022-09-20T18:40:18.913Z,77.94
2022-09-20T18:43:00.204Z,78.31
2022-09-20T18:45:32.563Z,77.99
2022-09-20T18:48:02.089Z,77.92
2022-09-20T18:50:30.811Z,78.12
2022-09-20T18:52:59.657Z,78.05
2022-09-20T18:55:29.276Z,78.21
2022-09-20T18:58:01.529Z,78.28
2022-09-20T19:00:31.327Z,78.30
2022-09-20T19:03:12.096Z,78.23
2022-09-20T19:05:53.138Z,78.26
2022-09-20T19:08:38.355Z,78.27
2022-09-20T19:11:16.855Z,78.79
2022-09-20T19:14:01.079Z,78.63
2022-09-20T19:16:35.404Z,78.97
2022-09-20T19:19:04.068Z,78.67
2022-09-20T19:21:46.300Z,78.77
2022-09-20T19:24:47.643Z,78.88
2022-09-20T19:27:16.611Z,78.73
2022-09-20T19:29:49.226Z,79.00
2022-09-20T19:32:21.985Z,79.00
2022-09-20T19:34:52.420Z,79.24
2022-09-20T19:37:58.999Z,79.22
2022-09-20T19:40:46.747Z,79.20
2022-09-20T19:43:53.435Z,79.25
2022-09-20T19:47:11.168Z,79.32
2022-09-20T19:50:04.004Z,79.52
2022-09-20T19:52:33.516Z,79.54
2022-09-20T19:55:03.088Z,79.58
2022-09-20T19:57:47.664Z,79.64
2022-09-20T20:00:19.588Z,79.85
2022-09-20T20:02:49.852Z,79.69
2022-09-20T20:05:21.229Z,79.52
2022-09-20T20:07:59.073Z,79.77
2022-09-20T20:10:54.989Z,80.03
2022-09-20T20:13:56.727Z,80.35
2022-09-20T20:16:38.640Z,80.09
2022-09-20T20:19:16.910Z,80.02
2022-09-20T20:22:23.393Z,80.28
2022-09-20T20:25:18.211Z,80.21
2022-09-20T20:27:47.806Z,80.46
2022-09-20T20:30:17.925Z,80.48
2022-09-20T20:32:48.952Z,80.33
2022-09-20T20:35:20.179Z,80.50
2022-09-20T20:37:50.392Z,80.55
2022-09-20T20:40:20.015Z,80.83
2022-09-20T20:43:02.730Z,80.52
2022-09-20T20:45:51.395Z,80.55
2022-09-20T20:48:20.624Z,80.79
2022-09-20T20:51:12.214Z,80.88
2022-09-20T20:53:47.374Z,80.93
2022-09-20T20:56:19.577Z,80.68
2022-09-20T20:58:49.618Z,80.86
2022-09-20T21:01:21.649Z,81.21
2022-09-20T21:03:53.472Z,80.91
2022-09-20T21:06:25.331Z,81.28
2022-09-20T21:08:54.355Z,81.13
2022-09-20T21:11:33.330Z,81.09
2022-09-20T21:14:07.080Z,81.28
2022-09-20T21:16:38.781Z,81.49
2022-09-20T21:19:10.236Z,81.31
2022-09-20T21:21:42.331Z,81.39
2022-09-20T21:24:24.618Z,81.64
2022-09-20T21:26:54.117Z,81.55
2022-09-20T21:29:23.097Z,81.67
2022-09-20T21:31:52.141Z,81.66
2022-09-20T21:34:21.101Z,81.73
2022-09-20T21:37:03.475Z,81.82
2022-09-20T21:39:32.684Z,81.70
2022-09-20T21:42:01.700Z,82.00
2022-09-20T21:44:30.871Z,81.99
2022-09-20T21:46:59.662Z,81.91
2022-09-20T21:49:29.094Z,82.26
2022-09-20T21:51:57.747Z,82.08
2022-09-20T21:54:40.914Z,82.32
2022-09-20T21:57:14.148Z,82.47
2022-09-20T21:59:43.536Z,82.22
2022-09-20T22:02:12.722Z,82.81
2022-09-20T22:04:41.462Z,82.69
2022-09-20T22:07:10.335Z,83.07
2022-09-20T22:09:40.608Z,83.27
2022-09-20T22:12:09.778Z,83.22
2022-09-20T22:14:40.563Z,83.35
2022-09-20T22:17:10.183Z,83.28
2022-09-20T22:19:40.673Z,83.28
2022-09-20T22:22:09.866Z,83.29
2022-09-20T22:24:38.790Z,83.57
2022-09-20T22:27:07.467Z,83.44
2022-09-20T22:29:36.109Z,82.96
2022-09-20T22:32:04.894Z,83.50
2022-09-20T22:34:33.685Z,83.41
2022-09-20T22:37:18.085Z,83.20
2022-09-20T22:39:46.748Z,83.52
2022-09-20T22:42:15.646Z,83.58
2022-09-20T22:44:44.890Z,83.50
2022-09-20T22:47:13.734Z,83.36
2022-09-20T22:49:42.518Z,83.59
2022-09-20T22:52:11.293Z,83.81
2022-09-20T22:54:40.208Z,83.51
2022-09-20T22:57:08.838Z,83.66
2022-09-20T22:59:51.429Z,83.47
2022-09-20T23:02:20.201Z,83.37
2022-09-20T23:04:49.602Z,83.47
2022-09-20T23:07:32.215Z,83.46
2022-09-20T23:10:00.855Z,83.81
2022-09-20T23:12:30.413Z,83.79
2022-09-20T23:14:59.718Z,83.85
2022-09-20T23:17:29.215Z,83.92
2022-09-20T23:19:58.519Z,83.96
2022-09-20T23:22:40.781Z,83.98
2022-09-20T23:25:10.425Z,83.98
2022-09-20T23:27:39.752Z,84.29
2022-09-20T23:30:08.980Z,84.09
2022-09-20T23:32:38.555Z,83.93
2022-09-20T23:35:21.066Z,83.95
2022-09-20T23:37:50.169Z,84.04
2022-09-20T23:40:18.928Z,84.32
2022-09-20T23:42:47.834Z,84.13
2022-09-20T23:45:30.698Z,84.09
2022-09-20T23:47:59.473Z,84.47
2022-09-20T23:50:28.105Z,84.37
2022-09-20T23:52:56.965Z,84.26
2022-09-20T23:55:26.129Z,84.25
2022-09-20T23:57:57.718Z,84.11
